createdAt,value
2022-08-09T00:00:04.911Z,44.05
2022-08-09T00:02:34.222Z,44.02
2022-08-09T00:06:12.180Z,44.20
2022-08-09T00:07:48.425Z,44.46
2022-08-09T00:10:18.223Z,44.57
2022-08-09T00:12:52.632Z,44.80
2022-08-09T00:15:26.745Z,44.72
2022-08-09T00:18:11.366Z,45.25
2022-08-09T00:20:49.839Z,45.00
2022-08-09T00:23:54.724Z,44.99
2022-08-09T00:26:07.110Z,44.88
2022-08-09T00:28:35.108Z,44.76
2022-08-09T00:31:09.353Z,44.96
2022-08-09T00:33:51.455Z,44.82
2022-08-09T00:36:19.671Z,45.03
2022-08-09T00:38:46.520Z,45.43
2022-08-09T00:44:10.359Z,45.46
2022-08-09T00:44:26.636Z,45.64
2022-08-09T00:47:05.504Z,45.69
2022-08-09T00:49:36.476Z,45.78
2022-08-09T00:52:05.943Z,45.92
2022-08-09T00:54:36.456Z,45.87
2022-08-09T00:57:10.263Z,45.87
2022-08-09T00:59:46.594Z,45.92
2022-08-09T01:02:23.360Z,46.28
2022-08-09T01:04:52.972Z,46.77
2022-08-09T01:07:38.075Z,47.05
2022-08-09T01:10:36.413Z,47.32
2022-08-09T01:13:18.112Z,47.68
2022-08-09T01:15:52.561Z,47.66
2022-08-09T01:18:29.782Z,48.03
2022-08-09T01:21:12.429Z,48.10
2022-08-09T01:24:02.382Z,47.86
2022-08-09T01:26:59.968Z,48.02
2022-08-09T01:29:55.114Z,48.06
2022-08-09T01:32:31.397Z,48.17
2022-08-09T01:35:28.856Z,48.22
2022-08-09T01:38:07.907Z,48.34
2022-08-09T01:40:52.406Z,48.34
2022-08-09T01:43:30.829Z,48.25
2022-08-09T01:45:58.950Z,48.03
2022-08-09T01:48:29.848Z,48.06
2022-08-09T01:50:59.723Z,48.07
2022-08-09T01:53:29.353Z,48.14
2022-08-09T01:56:11.309Z,48.11
2022-08-09T01:58:40.278Z,48.27
2022-08-09T02:01:08.963Z,48.59
2022-08-09T02:03:37.043Z,48.44
2022-08-09T02:06:07.346Z,48.66
2022-08-09T02:08:57.683Z,48.74
2022-08-09T02:11:42.126Z,48.58
2022-08-09T02:14:15.811Z,49.17
2022-08-09T02:16:59.548Z,49.34
2022-08-09T02:19:43.336Z,49.34
2022-08-09T02:22:51.447Z,49.48
2022-08-09T02:25:24.073Z,50.04
2022-08-09T02:28:03.882Z,50.30
2022-08-09T02:30:47.779Z,49.98
2022-08-09T02:33:23.100Z,50.32
2022-08-09T02:36:10.520Z,50.32
2022-08-09T02:38:47.903Z,50.58
2022-08-09T02:41:32.524Z,50.79
2022-08-09T02:44:10.310Z,51.18
2022-08-09T02:46:54.135Z,51.07
2022-08-09T02:49:38.424Z,51.18
2022-08-09T02:52:09.947Z,51.40
2022-08-09T02:54:54.453Z,51.42
2022-08-09T02:57:23.901Z,51.77
2022-08-09T03:00:25.408Z,52.01
2022-08-09T03:02:59.894Z,52.57
2022-08-09T03:05:28.707Z,52.64
2022-08-09T03:07:55.849Z,52.32
2022-08-09T03:10:25.574Z,52.38
2022-08-09T03:12:54.741Z,52.55
2022-08-09T03:15:23.344Z,52.19
2022-08-09T03:17:58.855Z,52.51
2022-08-09T03:20:29.536Z,52.80
2022-08-09T03:23:00.358Z,53.36
2022-08-09T03:25:58.725Z,53.58
2022-08-09T03:28:30.959Z,53.86
2022-08-09T03:30:59.345Z,53.82
2022-08-09T03:33:54.588Z,54.11
2022-08-09T03:36:18.741Z,54.59
2022-08-09T03:38:47.607Z,54.52
2022-08-09T03:41:18.397Z,54.86
2022-08-09T03:44:03.265Z,54.92
2022-08-09T03:46:34.323Z,54.59
2022-08-09T03:49:07.966Z,54.84
2022-08-09T03:51:55.184Z,55.27
2022-08-09T03:54:29.191Z,55.24
2022-08-09T03:56:58.650Z,55.40
2022-08-09T03:59:27.691Z,55.93
2022-08-09T04:02:10.590Z,56.13
2022-08-09T04:04:38.846Z,56.53
2022-08-09T04:07:06.089Z,56.55
2022-08-09T04:09:42.020Z,56.56
2022-08-09T04:12:30.966Z,56.77
2022-08-09T04:15:01.668Z,56.61
2022-08-09T04:17:29.822Z,56.75
2022-08-09T04:19:56.844Z,56.61
2022-08-09T04:22:24.307Z,56.51
2022-08-09T04:24:57.335Z,56.22
2022-08-09T04:27:27.417Z,56.50
2022-08-09T04:29:56.265Z,56.57
2022-08-09T04:32:34.070Z,57.21
2022-08-09T04:35:04.870Z,56.91
2022-08-09T04:37:45.669Z,56.85
2022-08-09T04:40:19.128Z,57.07
2022-08-09T04:42:56.723Z,57.55
2022-08-09T04:45:25.762Z,58.20
2022-08-09T04:48:02.120Z,58.18
2022-08-09T04:50:31.897Z,58.59
2022-08-09T04:53:01.802Z,58.45
2022-08-09T04:55:38.322Z,58.57
2022-08-09T04:58:09.423Z,58.48
2022-08-09T05:00:36.932Z,58.67
2022-08-09T05:03:40.255Z,58.79
2022-08-09T05:06:07.030Z,59.20
2022-08-09T05:08:34.981Z,59.49
2022-08-09T05:11:02.566Z,59.14
2022-08-09T05:13:29.274Z,59.18
2022-08-09T05:15:59.911Z,59.13
2022-08-09T05:18:50.536Z,59.36
2022-08-09T05:21:24.345Z,59.65
2022-08-09T05:24:00.403Z,60.35
2022-08-09T05:26:45.671Z,60.67
2022-08-09T05:29:21.595Z,60.81
2022-08-09T05:31:57.691Z,60.07
2022-08-09T05:34:30.641Z,58.76
2022-08-09T05:37:01.635Z,59.01
2022-08-09T05:39:36.485Z,59.12
2022-08-09T05:42:21.208Z,59.32
2022-08-09T05:44:53.135Z,59.19
2022-08-09T05:47:30.162Z,59.28
2022-08-09T05:50:30.097Z,59.24
2022-08-09T05:52:44.509Z,57.56
2022-08-09T05:55:24.074Z,57.88
2022-08-09T05:57:56.759Z,57.83
2022-08-09T06:00:32.881Z,57.90
2022-08-09T06:03:02.703Z,57.74
2022-08-09T06:05:57.299Z,57.43
2022-08-09T06:08:24.254Z,55.21
2022-08-09T06:10:53.423Z,54.84
2022-08-09T06:13:21.304Z,53.93
2022-08-09T06:15:51.504Z,55.04
2022-08-09T06:18:23.883Z,56.83
2022-08-09T06:20:54.853Z,57.64
2022-08-09T06:23:57.135Z,57.56
2022-08-09T06:26:20.398Z,57.26
2022-08-09T06:29:00.004Z,56.34
2022-08-09T06:31:31.419Z,56.21
2022-08-09T06:34:06.784Z,55.61
2022-08-09T06:36:36.961Z,55.84
2022-08-09T06:39:11.782Z,55.28
2022-08-09T06:41:39.718Z,55.65
2022-08-09T06:44:29.094Z,55.08
2022-08-09T06:46:58.393Z,55.51
2022-08-09T06:49:44.687Z,55.02
2022-08-09T06:52:15.755Z,54.43
2022-08-09T06:54:42.692Z,54.16
2022-08-09T06:57:12.000Z,52.99
2022-08-09T07:00:51.875Z,50.00
2022-08-09T07:02:29.439Z,48.44
2022-08-09T07:04:59.741Z,47.21
2022-08-09T07:08:00.029Z,47.12
2022-08-09T07:10:29.562Z,45.75
2022-08-09T07:12:58.401Z,44.92
2022-08-09T07:16:36.226Z,43.20
2022-08-09T07:18:15.137Z,44.12
2022-08-09T07:20:43.528Z,43.36
2022-08-09T07:23:19.170Z,42.84
2022-08-09T07:25:52.232Z,42.02
2022-08-09T07:28:29.116Z,42.51
2022-08-09T07:30:55.913Z,41.74
2022-08-09T07:33:25.032Z,41.29
2022-08-09T07:35:54.119Z,40.75
2022-08-09T07:38:23.499Z,40.30
2022-08-09T07:41:10.893Z,40.05
2022-08-09T07:43:50.148Z,39.44
2022-08-09T07:46:22.973Z,39.50
2022-08-09T07:48:59.504Z,39.08
2022-08-09T07:52:05.684Z,37.99
2022-08-09T07:54:15.707Z,37.38
2022-08-09T07:56:57.052Z,37.28
2022-08-09T07:59:45.911Z,37.19
2022-08-09T08:02:19.530Z,37.42
2022-08-09T08:04:48.565Z,36.36
2022-08-09T08:08:43.536Z,36.69
2022-08-09T08:10:08.516Z,36.84
2022-08-09T08:12:43.184Z,36.26
2022-08-09T08:15:14.195Z,35.62
2022-08-09T08:17:55.224Z,35.14
2022-08-09T08:20:29.216Z,35.31
2022-08-09T08:23:03.658Z,34.64
2022-08-09T08:25:44.356Z,35.46
2022-08-09T08:28:14.986Z,35.11
2022-08-09T08:30:47.482Z,34.87
2022-08-09T08:33:23.648Z,33.34
2022-08-09T08:35:58.239Z,35.30
2022-08-09T08:38:28.370Z,36.03
2022-08-09T08:40:56.151Z,34.58
2022-08-09T08:43:26.525Z,33.89
2022-08-09T08:46:10.144Z,32.92
2022-08-09T08:48:51.614Z,30.20
2022-08-09T08:51:18.809Z,30.63
2022-08-09T08:54:04.062Z,30.89
2022-08-09T08:56:36.035Z,30.90
2022-08-09T08:59:19.734Z,30.56
2022-08-09T09:01:53.423Z,29.66
2022-08-09T09:04:41.255Z,28.70
2022-08-09T09:07:15.468Z,29.59
2022-08-09T09:10:01.877Z,28.71
2022-08-09T09:12:34.206Z,27.91
2022-08-09T09:15:03.474Z,29.20
2022-08-09T09:17:48.669Z,31.65
2022-08-09T09:20:20.585Z,31.57
2022-08-09T09:22:53.414Z,30.73
2022-08-09T09:26:03.922Z,29.60
2022-08-09T09:29:02.334Z,27.93
2022-08-09T09:31:17.588Z,27.79
2022-08-09T09:34:18.203Z,26.99
2022-08-09T09:36:52.955Z,26.37
2022-08-09T09:39:54.635Z,25.53
2022-08-09T09:42:32.380Z,25.02
2022-08-09T09:45:01.282Z,24.44
2022-08-09T09:47:30.444Z,24.14
2022-08-09T09:50:14.279Z,23.89
2022-08-09T09:52:58.022Z,23.83
2022-08-09T09:55:32.175Z,23.65
2022-08-09T09:58:17.376Z,23.53
2022-08-09T10:00:58.836Z,23.73
2022-08-09T10:03:57.545Z,22.78
2022-08-09T10:06:32.192Z,23.00
2022-08-09T10:09:21.638Z,22.65
2022-08-09T10:12:07.567Z,22.01
2022-08-09T10:14:39.539Z,21.72
2022-08-09T10:17:24.352Z,22.47
2022-08-09T10:20:00.038Z,23.09
2022-08-09T10:22:35.354Z,24.56
2022-08-09T10:25:11.849Z,24.39
2022-08-09T10:27:55.897Z,22.93
2022-08-09T10:33:29.766Z,21.44
2022-08-09T10:36:11.465Z,21.73
2022-08-09T10:38:57.132Z,21.86
2022-08-09T10:41:29.174Z,21.52
2022-08-09T10:44:01.043Z,21.33
2022-08-09T10:46:34.270Z,21.67
2022-08-09T10:49:20.395Z,20.34
2022-08-09T10:52:00.237Z,20.07
2022-08-09T10:54:29.845Z,21.71
2022-08-09T10:57:10.792Z,22.98
2022-08-09T10:59:55.567Z,23.09
2022-08-09T11:03:46.751Z,22.80
2022-08-09T11:05:30.123Z,21.45
2022-08-09T11:08:17.517Z,20.55
2022-08-09T11:11:00.893Z,20.84
2022-08-09T11:13:51.477Z,21.46
2022-08-09T11:16:39.175Z,22.13
2022-08-09T11:19:10.313Z,21.45
2022-08-09T11:21:57.221Z,20.63
2022-08-09T11:25:09.153Z,20.16
2022-08-09T11:28:03.824Z,20.29
2022-08-09T11:30:34.587Z,20.05
2022-08-09T11:33:19.645Z,21.01
2022-08-09T11:35:54.581Z,20.23
2022-08-09T11:38:32.258Z,20.76
2022-08-09T11:41:38.130Z,21.01
2022-08-09T11:44:07.700Z,19.76
2022-08-09T11:46:59.619Z,21.18
2022-08-09T11:50:56.530Z,21.05
2022-08-09T11:53:16.484Z,19.65
2022-08-09T11:55:52.351Z,19.58
2022-08-09T11:58:30.153Z,20.83
2022-08-09T12:01:08.566Z,19.67
2022-08-09T12:03:57.370Z,19.77
2022-08-09T12:06:32.003Z,18.17
2022-08-09T12:09:01.188Z,18.17
2022-08-09T12:11:33.309Z,18.06
2022-08-09T12:14:12.422Z,17.32
2022-08-09T12:16:56.470Z,17.63
2022-08-09T12:19:30.697Z,17.26
2022-08-09T12:22:02.983Z,16.77
2022-08-09T12:24:30.882Z,16.54
2022-08-09T12:29:11.663Z,15.11
2022-08-09T12:30:01.458Z,15.07
2022-08-09T12:32:43.273Z,14.84
2022-08-09T12:35:13.403Z,14.88
2022-08-09T12:37:50.316Z,14.82
2022-08-09T12:40:20.519Z,14.53
2022-08-09T12:42:50.546Z,14.67
2022-08-09T12:45:35.018Z,14.62
2022-08-09T12:48:20.035Z,14.45
2022-08-09T12:50:57.890Z,15.13
2022-08-09T12:53:41.045Z,14.57
2022-08-09T12:56:37.027Z,14.39
2022-08-09T12:59:11.771Z,14.50
2022-08-09T13:01:42.771Z,14.12
2022-08-09T13:04:36.826Z,14.08
2022-08-09T13:07:50.721Z,14.82
2022-08-09T13:10:15.834Z,14.72
2022-08-09T13:13:08.726Z,14.22
2022-08-09T13:15:36.113Z,14.65
2022-08-09T13:18:05.727Z,14.97
2022-08-09T13:20:37.439Z,15.55
2022-08-09T13:24:16.029Z,14.77
2022-08-09T13:26:04.344Z,14.58
2022-08-09T13:28:35.857Z,14.46
2022-08-09T13:32:12.486Z,13.86
2022-08-09T13:33:55.167Z,13.83
2022-08-09T13:36:38.980Z,14.35
2022-08-09T13:41:19.352Z,13.47
2022-08-09T13:42:12.408Z,13.69
2022-08-09T13:44:45.675Z,13.64
2022-08-09T13:47:33.930Z,13.42
2022-08-09T13:50:18.166Z,14.04
2022-08-09T13:52:56.767Z,13.41
2022-08-09T13:55:29.035Z,13.52
2022-08-09T13:57:58.440Z,13.97
2022-08-09T14:00:28.871Z,15.07
2022-08-09T14:03:03.635Z,15.56
2022-08-09T14:05:56.630Z,14.33
2022-08-09T14:08:28.374Z,13.92
2022-08-09T14:10:56.228Z,14.00
2022-08-09T14:14:15.097Z,13.37
2022-08-09T14:16:14.934Z,15.02
2022-08-09T14:18:45.932Z,15.15
2022-08-09T14:21:22.239Z,14.48
2022-08-09T14:23:54.591Z,14.83
2022-08-09T14:26:25.210Z,14.31
2022-08-09T14:28:52.090Z,13.92
2022-08-09T14:31:23.682Z,13.75
2022-08-09T14:34:08.295Z,13.88
2022-08-09T14:36:39.849Z,14.33
2022-08-09T14:39:10.247Z,14.11
2022-08-09T14:41:41.695Z,13.42
2022-08-09T14:44:09.649Z,13.70
2022-08-09T14:47:01.474Z,13.33
2022-08-09T14:49:26.936Z,13.83
2022-08-09T14:51:58.854Z,15.56
2022-08-09T14:54:28.123Z,14.83
2022-08-09T14:56:58.615Z,14.99
2022-08-09T14:59:26.940Z,15.57
2022-08-09T15:01:54.159Z,15.34
2022-08-09T15:04:23.237Z,16.51
2022-08-09T15:06:51.390Z,14.91
2022-08-09T15:10:03.796Z,16.13
2022-08-09T15:12:08.267Z,15.08
2022-08-09T15:14:38.839Z,15.11
2022-08-09T15:17:09.611Z,15.02
2022-08-09T15:19:37.015Z,15.42
2022-08-09T15:22:21.993Z,15.21
2022-08-09T15:24:52.657Z,15.87
2022-08-09T15:27:19.344Z,15.17
2022-08-09T15:30:55.391Z,15.50
2022-08-09T15:32:33.764Z,16.20
2022-08-09T15:35:01.324Z,15.26
2022-08-09T15:37:36.988Z,15.88
2022-08-09T15:40:11.654Z,16.17
2022-08-09T15:42:39.635Z,16.54
2022-08-09T15:45:13.865Z,16.63
2022-08-09T15:47:51.492Z,16.87
2022-08-09T15:50:19.728Z,17.29
2022-08-09T15:52:55.028Z,17.56
2022-08-09T15:55:58.978Z,17.24
2022-08-09T15:58:27.180Z,16.85
2022-08-09T16:00:54.121Z,16.55
2022-08-09T16:03:29.652Z,16.43
2022-08-09T16:06:07.053Z,16.27
2022-08-09T16:08:56.059Z,17.12
2022-08-09T16:11:22.674Z,17.10
2022-08-09T16:14:06.016Z,17.18
2022-08-09T16:16:39.073Z,17.21
2022-08-09T16:19:10.277Z,17.46
2022-08-09T16:21:41.058Z,16.79
2022-08-09T16:24:20.097Z,17.50
2022-08-09T16:26:56.705Z,17.72
2022-08-09T16:29:37.411Z,17.87
2022-08-09T16:32:33.452Z,18.16
2022-08-09T16:34:58.408Z,18.14
2022-08-09T16:37:55.202Z,18.09
2022-08-09T16:40:14.051Z,18.44
2022-08-09T16:42:47.944Z,18.33
2022-08-09T16:45:19.580Z,18.40
2022-08-09T16:48:40.829Z,18.28
2022-08-09T16:50:35.314Z,18.03
2022-08-09T16:53:05.694Z,18.33
2022-08-09T16:55:58.570Z,19.57
2022-08-09T16:58:20.967Z,19.11
2022-08-09T17:00:48.555Z,19.36
2022-08-09T17:03:21.643Z,20.11
2022-08-09T17:06:07.646Z,19.75
2022-08-09T17:08:45.641Z,18.86
2022-08-09T17:11:39.949Z,19.51
2022-08-09T17:14:26.080Z,20.41
2022-08-09T17:17:02.179Z,19.91
2022-08-09T17:19:47.686Z,20.15
2022-08-09T17:22:30.928Z,20.12
2022-08-09T17:25:11.560Z,20.19
2022-08-09T17:27:49.212Z,20.75
2022-08-09T17:30:21.676Z,20.81
2022-08-09T17:32:52.795Z,20.97
2022-08-09T17:35:19.399Z,21.27
2022-08-09T17:38:11.820Z,21.58
2022-08-09T17:40:35.172Z,21.58
2022-08-09T17:43:33.053Z,21.44
2022-08-09T17:46:03.801Z,22.19
2022-08-09T17:48:38.361Z,22.32
2022-08-09T17:51:17.396Z,21.67
2022-08-09T17:53:52.432Z,21.83
2022-08-09T17:56:27.717Z,21.99
2022-08-09T17:59:01.117Z,21.65
2022-08-09T18:02:03.814Z,22.48
2022-08-09T18:04:17.885Z,22.28
2022-08-09T18:06:54.526Z,22.16
2022-08-09T18:09:22.826Z,22.73
2022-08-09T18:12:15.304Z,23.16
2022-08-09T18:14:49.720Z,22.92
2022-08-09T18:17:19.025Z,23.50
2022-08-09T18:20:59.139Z,23.30
2022-08-09T18:22:41.167Z,22.99
2022-08-09T18:25:17.972Z,23.33
2022-08-09T18:27:59.762Z,23.87
2022-08-09T18:30:34.597Z,24.17
2022-08-09T18:33:12.956Z,24.32
2022-08-09T18:35:58.321Z,24.33
2022-08-09T18:38:26.455Z,24.46
2022-08-09T18:40:55.289Z,24.92
2022-08-09T18:43:23.459Z,25.23
2022-08-09T18:46:46.028Z,25.49
2022-08-09T18:48:36.820Z,28.13
2022-08-09T18:51:03.391Z,29.23
2022-08-09T18:53:56.555Z,27.89
2022-08-09T18:56:17.015Z,27.29
2022-08-09T18:58:46.505Z,27.09
2022-08-09T19:01:18.250Z,26.97
2022-08-09T19:04:00.971Z,27.50
2022-08-09T19:06:32.889Z,28.83
2022-08-09T19:09:03.418Z,28.77
2022-08-09T19:11:37.495Z,28.54
2022-08-09T19:14:05.349Z,28.76
2022-08-09T19:16:36.228Z,29.30
2022-08-09T19:19:19.292Z,29.88
2022-08-09T19:22:06.492Z,29.88
2022-08-09T19:25:07.466Z,29.48
2022-08-09T19:27:22.241Z,30.17
2022-08-09T19:30:21.001Z,29.99
2022-08-09T19:32:36.752Z,30.13
2022-08-09T19:35:05.041Z,29.99
2022-08-09T19:37:40.948Z,31.05
2022-08-09T19:40:19.616Z,31.53
2022-08-09T19:42:48.991Z,31.98
2022-08-09T19:45:16.647Z,32.16
2022-08-09T19:47:46.518Z,31.96
2022-08-09T19:50:51.534Z,32.08
2022-08-09T19:53:04.399Z,32.43
2022-08-09T19:56:02.225Z,31.85
2022-08-09T19:58:18.083Z,32.40
2022-08-09T20:00:57.264Z,32.50
2022-08-09T20:04:17.216Z,33.22
2022-08-09T20:06:23.490Z,34.04
2022-08-09T20:08:56.912Z,34.19
2022-08-09T20:11:25.775Z,34.54
2022-08-09T20:13:54.350Z,34.89
2022-08-09T20:16:34.928Z,34.90
2022-08-09T20:19:42.555Z,34.42
2022-08-09T20:21:56.195Z,34.32
2022-08-09T20:24:29.609Z,34.59
2022-08-09T20:27:05.790Z,34.33
2022-08-09T20:29:39.042Z,34.69
2022-08-09T20:32:30.641Z,34.80
2022-08-09T20:34:54.701Z,34.98
2022-08-09T20:37:22.601Z,35.41
2022-08-09T20:40:18.016Z,35.90
2022-08-09T20:42:37.781Z,36.58
2022-08-09T20:46:00.402Z,37.20
2022-08-09T20:47:52.725Z,37.27
2022-08-09T20:50:47.843Z,37.69
2022-08-09T20:53:34.924Z,37.68
2022-08-09T20:56:02.106Z,37.57
2022-08-09T20:58:32.852Z,37.25
2022-08-09T21:01:33.675Z,37.34
2022-08-09T21:05:49.013Z,37.43
2022-08-09T21:06:42.490Z,37.47
2022-08-09T21:09:11.654Z,37.74
2022-08-09T21:14:27.156Z,38.10
2022-08-09T21:16:57.970Z,37.52
2022-08-09T21:20:17.098Z,37.51
2022-08-09T21:22:35.776Z,37.81
2022-08-09T21:25:18.669Z,37.60
2022-08-09T21:27:52.242Z,37.67
2022-08-09T21:30:22.283Z,38.11
2022-08-09T21:32:50.406Z,37.62
2022-08-09T21:35:17.620Z,37.80
2022-08-09T21:37:59.387Z,38.26
2022-08-09T21:40:30.638Z,38.49
2022-08-09T21:43:03.511Z,38.61
2022-08-09T21:45:39.189Z,38.60
2022-08-09T21:48:07.014Z,39.32
2022-08-09T21:50:36.186Z,39.11
2022-08-09T21:53:23.928Z,39.02
2022-08-09T21:55:54.325Z,39.75
2022-08-09T21:58:21.087Z,39.97
2022-08-09T22:00:55.891Z,39.68
2022-08-09T22:03:25.603Z,39.76
2022-08-09T22:05:54.188Z,39.99
2022-08-09T22:08:23.021Z,40.00
2022-08-09T22:11:49.137Z,40.09
2022-08-09T22:13:39.405Z,40.30
2022-08-09T22:16:10.623Z,40.71
2022-08-09T22:18:52.164Z,40.67
2022-08-09T22:21:22.407Z,41.00
2022-08-09T22:24:01.727Z,41.24
2022-08-09T22:26:35.341Z,41.17
2022-08-09T22:29:09.169Z,41.38
2022-08-09T22:31:38.518Z,41.03
2022-08-09T22:34:16.839Z,40.97
2022-08-09T22:36:47.105Z,40.86
2022-08-09T22:39:20.797Z,40.90
2022-08-09T22:42:03.396Z,40.67
2022-08-09T22:44:32.827Z,40.19
2022-08-09T22:48:14.693Z,40.13
2022-08-09T22:49:47.675Z,39.61
2022-08-09T22:52:21.725Z,39.58
2022-08-09T22:54:51.038Z,39.30
2022-08-09T22:57:18.011Z,39.04
2022-08-09T22:59:56.329Z,39.04
2022-08-09T23:02:25.154Z,38.99
2022-08-09T23:04:53.817Z,39.33
2022-08-09T23:08:22.916Z,38.96
2022-08-09T23:10:31.874Z,38.97
2022-08-09T23:12:58.850Z,39.08
2022-08-09T23:15:26.072Z,39.18
2022-08-09T23:17:52.677Z,38.89
2022-08-09T23:20:19.353Z,39.04
2022-08-09T23:22:45.954Z,38.82
2022-08-09T23:25:12.649Z,39.15
2022-08-09T23:28:09.498Z,39.29
2022-08-09T23:30:25.803Z,39.60
2022-08-09T23:32:55.439Z,39.51
2022-08-09T23:35:22.744Z,39.85
2022-08-09T23:37:49.284Z,39.68
2022-08-09T23:40:17.097Z,39.95
2022-08-09T23:42:43.718Z,40.15
2022-08-09T23:45:11.169Z,40.40
2022-08-09T23:47:57.717Z,40.70
2022-08-09T23:50:24.334Z,41.20
2022-08-09T23:52:51.054Z,41.47
2022-08-09T23:55:17.816Z,41.56
2022-08-09T23:58:01.147Z,41.90
